sensor_id;sensor_type;location;lat;lon;timestamp;temperature;humidity
41256;DHT22;26989;45.524;10.938;2023-04-19T00:01:36;14.00;96.00
41256;DHT22;26989;45.524;10.938;2023-04-19T00:04:03;14.00;96.10
41256;DHT22;26989;45.524;10.938;2023-04-19T00:06:30;13.80;96.70
41256;DHT22;26989;45.524;10.938;2023-04-19T00:08:57;13.80;96.70
41256;DHT22;26989;45.524;10.938;2023-04-19T00:11:24;13.80;96.70
41256;DHT22;26989;45.524;10.938;2023-04-19T00:13:51;13.80;96.70
41256;DHT22;26989;45.524;10.938;2023-04-19T00:16:18;14.10;96.10
41256;DHT22;26989;45.524;10.938;2023-04-19T00:18:45;14.20;96.10
41256;DHT22;26989;45.524;10.938;2023-04-19T00:21:12;14.10;96.30
41256;DHT22;26989;45.524;10.938;2023-04-19T00:23:39;14.10;96.20
41256;DHT22;26989;45.524;10.938;2023-04-19T00:26:06;14.00;96.40
41256;DHT22;26989;45.524;10.938;2023-04-19T00:28:33;14.10;96.40
41256;DHT22;26989;45.524;10.938;2023-04-19T00:31:00;14.00;96.60
41256;DHT22;26989;45.524;10.938;2023-04-19T00:33:27;14.00;96.90
41256;DHT22;26989;45.524;10.938;2023-04-19T00:35:54;14.10;96.50
41256;DHT22;26989;45.524;10.938;2023-04-19T00:38:21;14.00;96.50
41256;DHT22;26989;45.524;10.938;2023-04-19T00:40:47;14.00;96.70
41256;DHT22;26989;45.524;10.938;2023-04-19T00:43:17;13.90;96.80
41256;DHT22;26989;45.524;10.938;2023-04-19T00:45:48;13.90;96.90
41256;DHT22;26989;45.524;10.938;2023-04-19T00:48:15;14.00;96.70
41256;DHT22;26989;45.524;10.938;2023-04-19T00:50:43;14.00;96.80
41256;DHT22;26989;45.524;10.938;2023-04-19T00:56:52;13.70;97.60
41256;DHT22;26989;45.524;10.938;2023-04-19T00:59:18;13.70;97.60
41256;DHT22;26989;45.524;10.938;2023-04-19T01:01:45;13.70;97.50
41256;DHT22;26989;45.524;10.938;2023-04-19T01:04:13;13.60;97.60
41256;DHT22;26989;45.524;10.938;2023-04-19T01:06:41;13.70;97.60
41256;DHT22;26989;45.524;10.938;2023-04-19T01:09:08;13.60;97.70
41256;DHT22;26989;45.524;10.938;2023-04-19T01:11:35;13.60;97.70
41256;DHT22;26989;45.524;10.938;2023-04-19T01:14:02;13.60;97.70
41256;DHT22;26989;45.524;10.938;2023-04-19T01:16:29;13.70;97.60
41256;DHT22;26989;45.524;10.938;2023-04-19T01:18:56;13.60;97.70
41256;DHT22;26989;45.524;10.938;2023-04-19T01:21:23;13.60;97.70
41256;DHT22;26989;45.524;10.938;2023-04-19T01:23:49;13.60;97.80
41256;DHT22;26989;45.524;10.938;2023-04-19T01:26:16;13.60;97.70
41256;DHT22;26989;45.524;10.938;2023-04-19T01:28:44;13.60;98.00
41256;DHT22;26989;45.524;10.938;2023-04-19T01:31:11;13.50;98.10
41256;DHT22;26989;45.524;10.938;2023-04-19T01:33:38;13.50;97.80
41256;DHT22;26989;45.524;10.938;2023-04-19T01:36:05;13.70;97.50
41256;DHT22;26989;45.524;10.938;2023-04-19T01:38:32;13.60;97.60
41256;DHT22;26989;45.524;10.938;2023-04-19T01:41:00;13.60;97.70
41256;DHT22;26989;45.524;10.938;2023-04-19T01:43:27;13.60;97.70
41256;DHT22;26989;45.524;10.938;2023-04-19T01:45:54;13.50;97.70
41256;DHT22;26989;45.524;10.938;2023-04-19T01:48:20;13.60;97.70
41256;DHT22;26989;45.524;10.938;2023-04-19T01:50:47;13.50;97.80
41256;DHT22;26989;45.524;10.938;2023-04-19T01:53:14;13.50;97.90
41256;DHT22;26989;45.524;10.938;2023-04-19T01:55:41;13.50;97.80
41256;DHT22;26989;45.524;10.938;2023-04-19T01:58:08;13.50;97.80
41256;DHT22;26989;45.524;10.938;2023-04-19T02:00:35;13.50;97.90
41256;DHT22;26989;45.524;10.938;2023-04-19T02:03:02;13.40;98.00
41256;DHT22;26989;45.524;10.938;2023-04-19T02:05:29;13.30;98.10
41256;DHT22;26989;45.524;10.938;2023-04-19T02:07:56;13.30;98.30
41256;DHT22;26989;45.524;10.938;2023-04-19T02:10:23;13.20;98.40
41256;DHT22;26989;45.524;10.938;2023-04-19T02:12:50;13.20;98.30
41256;DHT22;26989;45.524;10.938;2023-04-19T02:15:16;13.20;98.30
41256;DHT22;26989;45.524;10.938;2023-04-19T02:17:43;13.20;98.30
41256;DHT22;26989;45.524;10.938;2023-04-19T02:20:12;13.20;98.40
41256;DHT22;26989;45.524;10.938;2023-04-19T02:22:39;13.20;98.30
41256;DHT22;26989;45.524;10.938;2023-04-19T02:25:06;13.30;98.30
41256;DHT22;26989;45.524;10.938;2023-04-19T02:27:33;13.20;98.40
41256;DHT22;26989;45.524;10.938;2023-04-19T02:30:00;13.30;98.30
41256;DHT22;26989;45.524;10.938;2023-04-19T02:32:27;12.90;99.30
41256;DHT22;26989;45.524;10.938;2023-04-19T02:34:54;12.90;99.20
41256;DHT22;26989;45.524;10.938;2023-04-19T02:37:21;12.90;99.20
41256;DHT22;26989;45.524;10.938;2023-04-19T02:39:48;13.00;99.00
41256;DHT22;26989;45.524;10.938;2023-04-19T02:42:15;13.00;99.10
41256;DHT22;26989;45.524;10.938;2023-04-19T02:44:41;13.00;99.00
41256;DHT22;26989;45.524;10.938;2023-04-19T02:47:08;13.10;99.00
41256;DHT22;26989;45.524;10.938;2023-04-19T02:49:35;13.10;99.00
41256;DHT22;26989;45.524;10.938;2023-04-19T02:52:03;12.90;99.40
41256;DHT22;26989;45.524;10.938;2023-04-19T02:54:30;13.10;99.00
41256;DHT22;26989;45.524;10.938;2023-04-19T02:56:58;13.10;99.00
41256;DHT22;26989;45.524;10.938;2023-04-19T02:59:28;13.10;99.00
41256;DHT22;26989;45.524;10.938;2023-04-19T03:01:56;13.00;99.20
41256;DHT22;26989;45.524;10.938;2023-04-19T03:04:23;12.90;99.10
41256;DHT22;26989;45.524;10.938;2023-04-19T03:06:50;12.90;99.30
41256;DHT22;26989;45.524;10.938;2023-04-19T03:09:17;13.00;99.10
41256;DHT22;26989;45.524;10.938;2023-04-19T03:11:44;12.90;99.30
41256;DHT22;26989;45.524;10.938;2023-04-19T03:14:11;12.90;99.30
41256;DHT22;26989;45.524;10.938;2023-04-19T03:16:38;12.90;99.30
41256;DHT22;26989;45.524;10.938;2023-04-19T03:19:05;12.90;99.40
41256;DHT22;26989;45.524;10.938;2023-04-19T03:21:32;12.80;99.40
41256;DHT22;26989;45.524;10.938;2023-04-19T03:23:59;12.80;99.30
41256;DHT22;26989;45.524;10.938;2023-04-19T03:26:25;12.80;99.40
41256;DHT22;26989;45.524;10.938;2023-04-19T03:28:52;12.80;99.40
41256;DHT22;26989;45.524;10.938;2023-04-19T03:31:19;12.80;99.30
41256;DHT22;26989;45.524;10.938;2023-04-19T03:33:46;12.90;99.00
41256;DHT22;26989;45.524;10.938;2023-04-19T03:36:13;12.90;99.20
41256;DHT22;26989;45.524;10.938;2023-04-19T03:38:39;13.00;98.90
41256;DHT22;26989;45.524;10.938;2023-04-19T03:41:21;13.00;98.70
41256;DHT22;26989;45.524;10.938;2023-04-19T03:43:48;13.00;98.60
41256;DHT22;26989;45.524;10.938;2023-04-19T03:46:14;13.00;98.80
41256;DHT22;26989;45.524;10.938;2023-04-19T03:48:41;12.90;99.00
41256;DHT22;26989;45.524;10.938;2023-04-19T03:51:08;12.80;99.00
41256;DHT22;26989;45.524;10.938;2023-04-19T03:53:35;12.70;99.20
41256;DHT22;26989;45.524;10.938;2023-04-19T03:56:02;12.60;99.50
41256;DHT22;26989;45.524;10.938;2023-04-19T03:58:29;12.60;99.50
41256;DHT22;26989;45.524;10.938;2023-04-19T04:00:57;12.60;99.70
41256;DHT22;26989;45.524;10.938;2023-04-19T04:03:24;12.50;99.70
41256;DHT22;26989;45.524;10.938;2023-04-19T04:05:51;12.50;99.90
41256;DHT22;26989;45.524;10.938;2023-04-19T04:08:18;12.40;99.90
41256;DHT22;26989;45.524;10.938;2023-04-19T04:10:45;12.40;99.90
41256;DHT22;26989;45.524;10.938;2023-04-19T04:13:12;12.40;99.80
41256;DHT22;26989;45.524;10.938;2023-04-19T04:15:39;12.30;99.90
41256;DHT22;26989;45.524;10.938;2023-04-19T04:18:07;12.30;99.90
41256;DHT22;26989;45.524;10.938;2023-04-19T04:20:34;12.20;99.90
41256;DHT22;26989;45.524;10.938;2023-04-19T04:23:01;12.20;99.90
41256;DHT22;26989;45.524;10.938;2023-04-19T04:25:28;12.10;99.90
41256;DHT22;26989;45.524;10.938;2023-04-19T04:27:55;12.10;99.90
41256;DHT22;26989;45.524;10.938;2023-04-19T04:30:22;12.00;99.90
41256;DHT22;26989;45.524;10.938;2023-04-19T04:32:52;12.00;99.90
41256;DHT22;26989;45.524;10.938;2023-04-19T04:35:23;12.00;99.90
41256;DHT22;26989;45.524;10.938;2023-04-19T04:37:50;12.10;99.90
41256;DHT22;26989;45.524;10.938;2023-04-19T04:40:19;12.10;99.90
41256;DHT22;26989;45.524;10.938;2023-04-19T04:42:46;12.10;99.90
41256;DHT22;26989;45.524;10.938;2023-04-19T04:45:13;12.10;99.90
41256;DHT22;26989;45.524;10.938;2023-04-19T04:47:43;12.10;99.90
41256;DHT22;26989;45.524;10.938;2023-04-19T04:50:11;12.10;99.90
41256;DHT22;26989;45.524;10.938;2023-04-19T04:52:38;12.10;99.90
41256;DHT22;26989;45.524;10.938;2023-04-19T04:55:05;12.20;99.90
41256;DHT22;26989;45.524;10.938;2023-04-19T04:57:32;12.10;99.90
41256;DHT22;26989;45.524;10.938;2023-04-19T04:59:59;12.10;99.90
41256;DHT22;26989;45.524;10.938;2023-04-19T05:02:26;12.10;99.90
41256;DHT22;26989;45.524;10.938;2023-04-19T05:04:53;12.20;99.90
41256;DHT22;26989;45.524;10.938;2023-04-19T05:07:20;12.40;99.90
41256;DHT22;26989;45.524;10.938;2023-04-19T05:09:47;12.60;99.90
41256;DHT22;26989;45.524;10.938;2023-04-19T05:12:14;12.60;99.90
41256;DHT22;26989;45.524;10.938;2023-04-19T05:14:41;12.80;99.90
41256;DHT22;26989;45.524;10.938;2023-04-19T05:17:08;12.90;99.90
41256;DHT22;26989;45.524;10.938;2023-04-19T05:19:35;13.00;99.70
41256;DHT22;26989;45.524;10.938;2023-04-19T05:22:02;13.00;99.40
41256;DHT22;26989;45.524;10.938;2023-04-19T05:24:29;14.00;98.70
41256;DHT22;26989;45.524;10.938;2023-04-19T05:26:56;15.50;96.80
41256;DHT22;26989;45.524;10.938;2023-04-19T05:29:22;16.10;94.90
41256;DHT22;26989;45.524;10.938;2023-04-19T05:31:49;18.20;93.80
41256;DHT22;26989;45.524;10.938;2023-04-19T05:34:17;20.00;92.00
41256;DHT22;26989;45.524;10.938;2023-04-19T05:36:47;21.70;90.80
41256;DHT22;26989;45.524;10.938;2023-04-19T05:39:14;20.60;90.50
41256;DHT22;26989;45.524;10.938;2023-04-19T05:41:42;21.10;90.40
41256;DHT22;26989;45.524;10.938;2023-04-19T05:44:09;21.50;90.10
41256;DHT22;26989;45.524;10.938;2023-04-19T05:46:36;19.50;91.10
41256;DHT22;26989;45.524;10.938;2023-04-19T05:49:03;20.10;91.40
41256;DHT22;26989;45.524;10.938;2023-04-19T05:51:30;19.50;91.30
41256;DHT22;26989;45.524;10.938;2023-04-19T05:53:58;18.90;91.70
41256;DHT22;26989;45.524;10.938;2023-04-19T05:56:25;18.70;92.60
41256;DHT22;26989;45.524;10.938;2023-04-19T05:58:52;18.00;93.20
41256;DHT22;26989;45.524;10.938;2023-04-19T06:01:22;17.20;94.60
41256;DHT22;26989;45.524;10.938;2023-04-19T06:03:49;16.50;95.20
41256;DHT22;26989;45.524;10.938;2023-04-19T06:06:30;16.50;95.10
41256;DHT22;26989;45.524;10.938;2023-04-19T06:08:57;16.50;95.20
41256;DHT22;26989;45.524;10.938;2023-04-19T06:11:24;16.70;95.00
41256;DHT22;26989;45.524;10.938;2023-04-19T06:14:00;16.80;94.80
41256;DHT22;26989;45.524;10.938;2023-04-19T06:16:27;16.90;95.30
41256;DHT22;26989;45.524;10.938;2023-04-19T06:18:54;16.50;95.10
41256;DHT22;26989;45.524;10.938;2023-04-19T06:21:25;16.90;95.10
41256;DHT22;26989;45.524;10.938;2023-04-19T06:23:56;17.70;94.50
41256;DHT22;26989;45.524;10.938;2023-04-19T06:26:24;20.40;92.30
41256;DHT22;26989;45.524;10.938;2023-04-19T06:28:51;22.40;90.60
41256;DHT22;26989;45.524;10.938;2023-04-19T06:31:18;23.90;88.30
41256;DHT22;26989;45.524;10.938;2023-04-19T06:33:45;22.50;88.40
41256;DHT22;26989;45.524;10.938;2023-04-19T06:36:12;20.70;90.10
41256;DHT22;26989;45.524;10.938;2023-04-19T06:38:39;20.00;91.30
41256;DHT22;26989;45.524;10.938;2023-04-19T06:41:07;19.30;91.70
41256;DHT22;26989;45.524;10.938;2023-04-19T06:43:35;18.40;92.20
41256;DHT22;26989;45.524;10.938;2023-04-19T06:46:02;18.10;92.80
41256;DHT22;26989;45.524;10.938;2023-04-19T06:48:33;18.10;93.00
41256;DHT22;26989;45.524;10.938;2023-04-19T06:51:00;17.90;93.10
41256;DHT22;26989;45.524;10.938;2023-04-19T06:53:27;17.90;93.20
41256;DHT22;26989;45.524;10.938;2023-04-19T06:55:59;17.80;93.00
41256;DHT22;26989;45.524;10.938;2023-04-19T06:58:28;17.70;93.20
41256;DHT22;26989;45.524;10.938;2023-04-19T07:00:57;17.60;93.90
41256;DHT22;26989;45.524;10.938;2023-04-19T07:03:24;17.90;92.90
41256;DHT22;26989;45.524;10.938;2023-04-19T07:05:52;18.00;92.90
41256;DHT22;26989;45.524;10.938;2023-04-19T07:08:23;18.20;92.90
41256;DHT22;26989;45.524;10.938;2023-04-19T07:10:57;18.20;92.40
41256;DHT22;26989;45.524;10.938;2023-04-19T07:13:24;18.30;92.70
41256;DHT22;26989;45.524;10.938;2023-04-19T07:15:51;18.30;92.70
41256;DHT22;26989;45.524;10.938;2023-04-19T07:18:18;18.20;92.50
41256;DHT22;26989;45.524;10.938;2023-04-19T07:20:45;18.20;92.30
41256;DHT22;26989;45.524;10.938;2023-04-19T07:23:14;18.30;92.30
41256;DHT22;26989;45.524;10.938;2023-04-19T07:25:41;18.10;92.70
41256;DHT22;26989;45.524;10.938;2023-04-19T07:28:09;17.90;92.70
41256;DHT22;26989;45.524;10.938;2023-04-19T07:30:36;18.00;92.80
41256;DHT22;26989;45.524;10.938;2023-04-19T07:33:03;17.90;93.10
41256;DHT22;26989;45.524;10.938;2023-04-19T07:35:30;17.90;93.20
41256;DHT22;26989;45.524;10.938;2023-04-19T07:37:57;17.90;93.10
41256;DHT22;26989;45.524;10.938;2023-04-19T07:40:24;18.10;92.90
41256;DHT22;26989;45.524;10.938;2023-04-19T07:42:54;18.20;92.90
41256;DHT22;26989;45.524;10.938;2023-04-19T07:45:21;18.30;92.90
41256;DHT22;26989;45.524;10.938;2023-04-19T07:47:48;18.30;93.00
41256;DHT22;26989;45.524;10.938;2023-04-19T07:50:16;18.50;92.60
41256;DHT22;26989;45.524;10.938;2023-04-19T07:52:43;18.60;92.30
41256;DHT22;26989;45.524;10.938;2023-04-19T07:55:10;18.60;92.30
41256;DHT22;26989;45.524;10.938;2023-04-19T07:57:37;18.20;92.30
41256;DHT22;26989;45.524;10.938;2023-04-19T08:00:04;18.60;92.70
41256;DHT22;26989;45.524;10.938;2023-04-19T08:02:31;18.40;92.60
41256;DHT22;26989;45.524;10.938;2023-04-19T08:04:58;18.70;92.20
41256;DHT22;26989;45.524;10.938;2023-04-19T08:07:25;18.80;92.20
41256;DHT22;26989;45.524;10.938;2023-04-19T08:09:52;19.00;92.10
41256;DHT22;26989;45.524;10.938;2023-04-19T08:12:19;19.30;91.80
41256;DHT22;26989;45.524;10.938;2023-04-19T08:14:52;19.60;91.30
41256;DHT22;26989;45.524;10.938;2023-04-19T08:17:36;19.20;91.00
41256;DHT22;26989;45.524;10.938;2023-04-19T08:20:09;19.30;91.30
41256;DHT22;26989;45.524;10.938;2023-04-19T08:22:37;19.50;91.00
41256;DHT22;26989;45.524;10.938;2023-04-19T08:25:06;19.70;90.90
41256;DHT22;26989;45.524;10.938;2023-04-19T08:27:34;19.50;91.20
41256;DHT22;26989;45.524;10.938;2023-04-19T08:30:01;20.10;91.00
41256;DHT22;26989;45.524;10.938;2023-04-19T08:32:28;20.40;90.10
41256;DHT22;26989;45.524;10.938;2023-04-19T08:34:56;20.30;90.10
41256;DHT22;26989;45.524;10.938;2023-04-19T08:37:23;20.50;90.60
41256;DHT22;26989;45.524;10.938;2023-04-19T08:39:49;20.70;90.40
41256;DHT22;26989;45.524;10.938;2023-04-19T08:42:17;20.60;89.40
41256;DHT22;26989;45.524;10.938;2023-04-19T08:44:50;21.00;90.20
41256;DHT22;26989;45.524;10.938;2023-04-19T08:47:39;21.30;90.00
41256;DHT22;26989;45.524;10.938;2023-04-19T08:50:09;21.70;89.30
41256;DHT22;26989;45.524;10.938;2023-04-19T08:52:58;21.50;86.80
41256;DHT22;26989;45.524;10.938;2023-04-19T08:55:45;21.10;88.90
41256;DHT22;26989;45.524;10.938;2023-04-19T08:58:33;21.50;88.20
41256;DHT22;26989;45.524;10.938;2023-04-19T09:01:19;21.50;88.00
41256;DHT22;26989;45.524;10.938;2023-04-19T09:03:59;21.50;87.40
41256;DHT22;26989;45.524;10.938;2023-04-19T09:06:47;21.00;87.20
41256;DHT22;26989;45.524;10.938;2023-04-19T09:12:01;21.20;88.60
41256;DHT22;26989;45.524;10.938;2023-04-19T09:14:28;21.00;88.20
41256;DHT22;26989;45.524;10.938;2023-04-19T09:17:12;21.00;88.20
41256;DHT22;26989;45.524;10.938;2023-04-19T09:19:48;20.70;88.70
41256;DHT22;26989;45.524;10.938;2023-04-19T09:22:15;20.40;88.80
41256;DHT22;26989;45.524;10.938;2023-04-19T09:24:43;20.00;89.50
41256;DHT22;26989;45.524;10.938;2023-04-19T09:27:31;19.90;90.30
41256;DHT22;26989;45.524;10.938;2023-04-19T09:29:59;20.00;90.00
41256;DHT22;26989;45.524;10.938;2023-04-19T09:32:27;19.40;90.60
41256;DHT22;26989;45.524;10.938;2023-04-19T09:34:58;19.40;91.10
41256;DHT22;26989;45.524;10.938;2023-04-19T09:37:26;19.70;90.80
41256;DHT22;26989;45.524;10.938;2023-04-19T09:39:56;19.80;90.60
41256;DHT22;26989;45.524;10.938;2023-04-19T09:42:23;20.00;90.40
41256;DHT22;26989;45.524;10.938;2023-04-19T09:45:10;20.00;90.40
41256;DHT22;26989;45.524;10.938;2023-04-19T09:47:39;20.10;90.20
41256;DHT22;26989;45.524;10.938;2023-04-19T09:50:10;20.20;90.30
41256;DHT22;26989;45.524;10.938;2023-04-19T09:52:51;20.20;90.40
41256;DHT22;26989;45.524;10.938;2023-04-19T09:55:18;19.90;90.20
41256;DHT22;26989;45.524;10.938;2023-04-19T09:57:48;19.60;90.50
41256;DHT22;26989;45.524;10.938;2023-04-19T10:00:15;19.40;90.60
41256;DHT22;26989;45.524;10.938;2023-04-19T10:02:43;19.10;91.10
41256;DHT22;26989;45.524;10.938;2023-04-19T10:05:14;19.30;90.60
41256;DHT22;26989;45.524;10.938;2023-04-19T10:07:48;19.10;90.70
41256;DHT22;26989;45.524;10.938;2023-04-19T10:10:16;19.20;91.20
41256;DHT22;26989;45.524;10.938;2023-04-19T10:12:51;19.10;91.10
41256;DHT22;26989;45.524;10.938;2023-04-19T10:15:22;19.20;91.10
41256;DHT22;26989;45.524;10.938;2023-04-19T10:17:50;19.40;90.90
41256;DHT22;26989;45.524;10.938;2023-04-19T10:20:24;19.40;91.30
41256;DHT22;26989;45.524;10.938;2023-04-19T10:22:52;19.50;91.10
41256;DHT22;26989;45.524;10.938;2023-04-19T10:25:27;19.40;90.90
41256;DHT22;26989;45.524;10.938;2023-04-19T10:27:56;19.20;90.70
41256;DHT22;26989;45.524;10.938;2023-04-19T10:30:24;19.10;90.70
41256;DHT22;26989;45.524;10.938;2023-04-19T10:32:55;18.80;91.30
41256;DHT22;26989;45.524;10.938;2023-04-19T10:35:28;18.30;91.00
41256;DHT22;26989;45.524;10.938;2023-04-19T10:38:09;18.80;91.70
41256;DHT22;26989;45.524;10.938;2023-04-19T10:40:58;18.80;91.40
41256;DHT22;26989;45.524;10.938;2023-04-19T10:43:30;19.00;91.40
41256;DHT22;26989;45.524;10.938;2023-04-19T10:46:01;19.30;91.10
41256;DHT22;26989;45.524;10.938;2023-04-19T10:48:34;19.10;91.20
41256;DHT22;26989;45.524;10.938;2023-04-19T10:51:03;19.20;90.60
41256;DHT22;26989;45.524;10.938;2023-04-19T10:53:43;19.30;90.90
41256;DHT22;26989;45.524;10.938;2023-04-19T10:56:10;19.50;90.50
41256;DHT22;26989;45.524;10.938;2023-04-19T11:01:47;19.50;90.30
41256;DHT22;26989;45.524;10.938;2023-04-19T11:07:02;19.20;90.70
41256;DHT22;26989;45.524;10.938;2023-04-19T11:09:34;19.20;90.80
41256;DHT22;26989;45.524;10.938;2023-04-19T11:12:10;19.60;90.60
41256;DHT22;26989;45.524;10.938;2023-04-19T11:14:41;19.90;90.70
41256;DHT22;26989;45.524;10.938;2023-04-19T11:17:20;20.00;90.60
41256;DHT22;26989;45.524;10.938;2023-04-19T11:20:02;20.10;90.30
41256;DHT22;26989;45.524;10.938;2023-04-19T11:22:44;20.20;90.10
41256;DHT22;26989;45.524;10.938;2023-04-19T11:25:19;20.00;89.70
41256;DHT22;26989;45.524;10.938;2023-04-19T11:27:51;20.00;89.50
41256;DHT22;26989;45.524;10.938;2023-04-19T11:30:20;20.10;89.40
41256;DHT22;26989;45.524;10.938;2023-04-19T11:32:52;20.00;89.80
41256;DHT22;26989;45.524;10.938;2023-04-19T11:35:28;20.10;89.40
41256;DHT22;26989;45.524;10.938;2023-04-19T11:37:59;20.30;89.50
41256;DHT22;26989;45.524;10.938;2023-04-19T11:40:27;20.10;89.50
41256;DHT22;26989;45.524;10.938;2023-04-19T11:42:58;20.30;90.00
41256;DHT22;26989;45.524;10.938;2023-04-19T11:45:28;20.70;88.60
41256;DHT22;26989;45.524;10.938;2023-04-19T11:47:59;20.90;89.50
41256;DHT22;26989;45.524;10.938;2023-04-19T11:50:42;21.10;88.90
41256;DHT22;26989;45.524;10.938;2023-04-19T11:53:19;20.50;87.80
41256;DHT22;26989;45.524;10.938;2023-04-19T11:55:51;20.60;87.00
41256;DHT22;26989;45.524;10.938;2023-04-19T12:01:18;21.20;86.90
41256;DHT22;26989;45.524;10.938;2023-04-19T12:06:25;21.30;85.80
41256;DHT22;26989;45.524;10.938;2023-04-19T12:08:53;21.10;85.60
41256;DHT22;26989;45.524;10.938;2023-04-19T12:11:23;21.40;85.10
41256;DHT22;26989;45.524;10.938;2023-04-19T12:14:12;21.90;85.20
41256;DHT22;26989;45.524;10.938;2023-04-19T12:16:40;22.10;84.60
41256;DHT22;26989;45.524;10.938;2023-04-19T12:19:14;22.30;84.20
41256;DHT22;26989;45.524;10.938;2023-04-19T12:21:44;22.10;83.90
41256;DHT22;26989;45.524;10.938;2023-04-19T12:24:16;22.00;84.60
41256;DHT22;26989;45.524;10.938;2023-04-19T12:26:56;22.40;85.90
41256;DHT22;26989;45.524;10.938;2023-04-19T12:29:25;22.40;85.60
41256;DHT22;26989;45.524;10.938;2023-04-19T12:31:52;22.40;85.00
41256;DHT22;26989;45.524;10.938;2023-04-19T12:34:19;22.40;84.60
41256;DHT22;26989;45.524;10.938;2023-04-19T12:36:46;22.50;84.60
41256;DHT22;26989;45.524;10.938;2023-04-19T12:39:13;22.40;84.00
41256;DHT22;26989;45.524;10.938;2023-04-19T12:41:40;22.50;84.60
41256;DHT22;26989;45.524;10.938;2023-04-19T12:44:07;21.90;84.80
41256;DHT22;26989;45.524;10.938;2023-04-19T12:46:34;21.90;84.60
41256;DHT22;26989;45.524;10.938;2023-04-19T12:49:02;22.10;84.90
41256;DHT22;26989;45.524;10.938;2023-04-19T12:51:29;22.40;84.80
41256;DHT22;26989;45.524;10.938;2023-04-19T12:53:57;22.50;82.50
41256;DHT22;26989;45.524;10.938;2023-04-19T12:56:24;22.80;82.50
41256;DHT22;26989;45.524;10.938;2023-04-19T12:58:51;22.30;83.60
41256;DHT22;26989;45.524;10.938;2023-04-19T13:01:19;22.40;83.60
41256;DHT22;26989;45.524;10.938;2023-04-19T13:03:47;22.70;83.00
41256;DHT22;26989;45.524;10.938;2023-04-19T13:06:14;22.60;83.00
41256;DHT22;26989;45.524;10.938;2023-04-19T13:08:42;22.50;83.00
41256;DHT22;26989;45.524;10.938;2023-04-19T13:11:13;22.80;83.50
41256;DHT22;26989;45.524;10.938;2023-04-19T13:13:40;22.70;83.50
41256;DHT22;26989;45.524;10.938;2023-04-19T13:16:07;22.50;82.40
41256;DHT22;26989;45.524;10.938;2023-04-19T13:18:35;22.20;82.90
41256;DHT22;26989;45.524;10.938;2023-04-19T13:21:02;22.10;83.70
41256;DHT22;26989;45.524;10.938;2023-04-19T13:23:31;21.40;85.10
41256;DHT22;26989;45.524;10.938;2023-04-19T13:25:58;21.00;85.00
41256;DHT22;26989;45.524;10.938;2023-04-19T13:28:25;21.80;84.60
41256;DHT22;26989;45.524;10.938;2023-04-19T13:30:52;22.30;83.40
41256;DHT22;26989;45.524;10.938;2023-04-19T13:33:19;22.40;83.60
41256;DHT22;26989;45.524;10.938;2023-04-19T13:35:46;22.70;82.50
41256;DHT22;26989;45.524;10.938;2023-04-19T13:38:13;22.90;81.40
41256;DHT22;26989;45.524;10.938;2023-04-19T13:40:40;22.20;82.50
41256;DHT22;26989;45.524;10.938;2023-04-19T13:43:07;21.70;82.40
41256;DHT22;26989;45.524;10.938;2023-04-19T13:45:33;21.30;83.90
41256;DHT22;26989;45.524;10.938;2023-04-19T13:48:03;21.40;84.30
41256;DHT22;26989;45.524;10.938;2023-04-19T13:50:30;22.10;83.80
41256;DHT22;26989;45.524;10.938;2023-04-19T13:52:57;22.50;84.20
41256;DHT22;26989;45.524;10.938;2023-04-19T13:55:25;22.30;84.20
41256;DHT22;26989;45.524;10.938;2023-04-19T13:57:52;21.10;87.20
41256;DHT22;26989;45.524;10.938;2023-04-19T14:00:19;21.40;87.80
41256;DHT22;26989;45.524;10.938;2023-04-19T14:02:47;21.80;87.20
41256;DHT22;26989;45.524;10.938;2023-04-19T14:05:17;21.90;87.40
41256;DHT22;26989;45.524;10.938;2023-04-19T14:07:44;20.90;88.60
41256;DHT22;26989;45.524;10.938;2023-04-19T14:10:11;20.00;90.50
41256;DHT22;26989;45.524;10.938;2023-04-19T14:12:38;19.90;90.90
41256;DHT22;26989;45.524;10.938;2023-04-19T14:15:05;19.60;90.50
41256;DHT22;26989;45.524;10.938;2023-04-19T14:17:32;19.80;90.60
41256;DHT22;26989;45.524;10.938;2023-04-19T14:20:01;19.90;90.80
41256;DHT22;26989;45.524;10.938;2023-04-19T14:22:32;20.70;89.60
41256;DHT22;26989;45.524;10.938;2023-04-19T14:25:00;21.00;88.80
41256;DHT22;26989;45.524;10.938;2023-04-19T14:27:28;20.90;88.70
41256;DHT22;26989;45.524;10.938;2023-04-19T14:29:54;20.80;88.50
41256;DHT22;26989;45.524;10.938;2023-04-19T14:32:21;20.90;88.50
41256;DHT22;26989;45.524;10.938;2023-04-19T14:34:53;20.40;89.40
41256;DHT22;26989;45.524;10.938;2023-04-19T14:37:22;20.60;88.30
41256;DHT22;26989;45.524;10.938;2023-04-19T14:39:50;19.80;90.20
41256;DHT22;26989;45.524;10.938;2023-04-19T14:42:17;19.70;90.80
41256;DHT22;26989;45.524;10.938;2023-04-19T14:44:51;19.20;91.80
41256;DHT22;26989;45.524;10.938;2023-04-19T14:47:19;19.20;92.00
41256;DHT22;26989;45.524;10.938;2023-04-19T14:49:46;19.60;91.40
41256;DHT22;26989;45.524;10.938;2023-04-19T14:52:14;19.10;90.90
41256;DHT22;26989;45.524;10.938;2023-04-19T14:54:41;19.00;91.70
41256;DHT22;26989;45.524;10.938;2023-04-19T14:57:08;18.90;91.60
41256;DHT22;26989;45.524;10.938;2023-04-19T14:59:35;18.80;91.60
41256;DHT22;26989;45.524;10.938;2023-04-19T15:02:02;19.00;91.90
41256;DHT22;26989;45.524;10.938;2023-04-19T15:04:32;18.70;91.60
41256;DHT22;26989;45.524;10.938;2023-04-19T15:06:59;18.70;92.40
41256;DHT22;26989;45.524;10.938;2023-04-19T15:09:26;18.50;92.60
41256;DHT22;26989;45.524;10.938;2023-04-19T15:11:53;18.40;92.20
41256;DHT22;26989;45.524;10.938;2023-04-19T15:14:20;18.40;92.70
41256;DHT22;26989;45.524;10.938;2023-04-19T15:16:46;18.40;93.30
41256;DHT22;26989;45.524;10.938;2023-04-19T15:19:14;18.30;94.20
41256;DHT22;26989;45.524;10.938;2023-04-19T15:21:41;18.10;94.70
41256;DHT22;26989;45.524;10.938;2023-04-19T15:24:08;17.90;95.30
41256;DHT22;26989;45.524;10.938;2023-04-19T15:26:35;17.70;96.20
41256;DHT22;26989;45.524;10.938;2023-04-19T15:29:04;17.40;97.30
41256;DHT22;26989;45.524;10.938;2023-04-19T15:31:31;17.30;98.10
41256;DHT22;26989;45.524;10.938;2023-04-19T15:34:02;17.10;99.90
41256;DHT22;26989;45.524;10.938;2023-04-19T15:36:29;17.00;99.90
41256;DHT22;26989;45.524;10.938;2023-04-19T15:38:59;17.00;99.90
41256;DHT22;26989;45.524;10.938;2023-04-19T15:41:26;17.30;99.90
41256;DHT22;26989;45.524;10.938;2023-04-19T15:43:53;17.40;99.90